Time;durP1;ratioP1;P1;durP2;ratioP2;P2;SDS_P1;SDS_P2;PMS_P1;PMS_P2;Temp;Humidity;BMP_temperature;BMP_pressure;BME280_temperature;BME280_humidity;BME280_pressure;Samples;Min_cycle;Max_cycle;Signal;HPM_P1;HPM_P2
2023/12/17 00:02:28;;;;;;;4.10;3.80;;;;;;;;;;6267520;22;20070;-87
2023/12/17 00:05:12;;;;;;;4.60;4.20;;;;;;;;;;6267604;22;20082;-87
2023/12/17 00:07:56;;;;;;;4.47;4.07;;;;;;;;;;6180533;23;20020;-88
2023/12/17 00:10:40;;;;;;;4.22;3.90;;;;;;;;;;6268363;22;20016;-87
2023/12/17 00:13:24;;;;;;;3.85;3.45;;;;;;;;;;6268183;22;20089;-88
2023/12/17 00:16:08;;;;;;;4.10;3.80;;;;;;;;;;6267946;22;20525;-87
2023/12/17 00:18:52;;;;;;;4.63;4.22;;;;;;;;;;6266982;22;20086;-88
2023/12/17 00:21:36;;;;;;;4.07;3.78;;;;;;;;;;6268671;22;20032;-87
2023/12/17 00:24:20;;;;;;;4.63;4.22;;;;;;;;;;6268379;22;20020;-88
2023/12/17 00:27:04;;;;;;;4.57;4.18;;;;;;;;;;6267570;22;20393;-87
2023/12/17 00:29:48;;;;;;;4.30;3.90;;;;;;;;;;6268233;22;20105;-87
2023/12/17 00:32:32;;;;;;;4.00;3.70;;;;;;;;;;6179321;23;20062;-88
2023/12/17 00:35:16;;;;;;;3.90;3.60;;;;;;;;;;6267701;22;20024;-87
2023/12/17 00:38:00;;;;;;;3.40;3.20;;;;;;;;;;6267260;22;20082;-87
2023/12/17 00:40:44;;;;;;;3.15;2.90;;;;;;;;;;6267986;22;20024;-88
2023/12/17 00:43:27;;;;;;;3.50;3.20;;;;;;;;;;6268560;22;20042;-86
2023/12/17 00:46:11;;;;;;;3.70;3.40;;;;;;;;;;6267039;22;20028;-87
2023/12/17 00:48:55;;;;;;;3.90;3.60;;;;;;;;;;6267562;22;20103;-88
2023/12/17 00:51:39;;;;;;;3.28;3.08;;;;;;;;;;6267901;22;20103;-87
2023/12/17 00:54:23;;;;;;;4.30;3.47;;;;;;;;;;6268013;22;20020;-87
2023/12/17 00:57:07;;;;;;;3.72;3.03;;;;;;;;;;6268557;22;20066;-87
2023/12/17 00:59:51;;;;;;;3.50;3.20;;;;;;;;;;6180006;23;20056;-87
2023/12/17 01:02:35;;;;;;;3.70;3.40;;;;;;;;;;6180774;23;20070;-87
2023/12/17 01:05:19;;;;;;;3.70;3.10;;;;;;;;;;6267843;22;20023;-88
2023/12/17 01:08:03;;;;;;;3.63;3.33;;;;;;;;;;6267922;22;20020;-87
2023/12/17 01:10:47;;;;;;;3.75;3.40;;;;;;;;;;6265991;22;20016;-87
2023/12/17 01:13:31;;;;;;;3.50;3.20;;;;;;;;;;6268348;22;20015;-88
2023/12/17 01:16:15;;;;;;;4.72;3.80;;;;;;;;;;6269157;22;20055;-89
2023/12/17 01:18:59;;;;;;;4.00;3.70;;;;;;;;;;6180180;23;20082;-88
2023/12/17 01:21:43;;;;;;;3.70;3.40;;;;;;;;;;6269004;22;20047;-89
2023/12/17 01:24:27;;;;;;;3.38;3.08;;;;;;;;;;6181488;23;20355;-88
2023/12/17 01:27:11;;;;;;;3.33;3.05;;;;;;;;;;6268469;22;20078;-88
2023/12/17 01:29:55;;;;;;;3.65;3.08;;;;;;;;;;6180262;23;20048;-87
2023/12/17 01:32:39;;;;;;;3.60;3.30;;;;;;;;;;6267907;22;20332;-87
2023/12/17 01:35:23;;;;;;;3.45;2.92;;;;;;;;;;6269085;22;20039;-88
2023/12/17 01:38:07;;;;;;;3.10;2.90;;;;;;;;;;6267934;22;20105;-88
2023/12/17 01:40:51;;;;;;;2.95;2.70;;;;;;;;;;6267810;22;20016;-87
2023/12/17 01:43:35;;;;;;;4.35;2.83;;;;;;;;;;6180009;23;20019;-87
2023/12/17 01:46:19;;;;;;;2.97;2.47;;;;;;;;;;6266224;22;20056;-88
2023/12/17 01:49:03;;;;;;;3.13;2.92;;;;;;;;;;6268713;22;20020;-88
2023/12/17 01:51:47;;;;;;;2.63;2.42;;;;;;;;;;6268175;22;20481;-88
2023/12/17 01:54:31;;;;;;;3.22;2.92;;;;;;;;;;6268819;22;20066;-88
2023/12/17 01:57:15;;;;;;;3.35;2.78;;;;;;;;;;6267979;22;20020;-88
2023/12/17 01:59:59;;;;;;;4.38;2.90;;;;;;;;;;6267057;22;20023;-87
2023/12/17 02:02:43;;;;;;;6.47;2.65;;;;;;;;;;6268366;22;20024;-88
2023/12/17 02:05:33;;;;;;;3.63;2.63;;;;;;;;;;6267138;22;20047;-88
2023/12/17 02:08:22;;;;;;;5.80;2.80;;;;;;;;;;6266998;22;20020;-88
2023/12/17 02:11:06;;;;;;;3.33;2.70;;;;;;;;;;6181303;23;20048;-88
2023/12/17 02:13:50;;;;;;;4.20;2.88;;;;;;;;;;6268822;22;20461;-88
2023/12/17 02:16:34;;;;;;;3.83;2.83;;;;;;;;;;6268277;22;20027;-90
2023/12/17 02:19:20;;;;;;;4.68;2.58;;;;;;;;;;6180769;23;20093;-88
2023/12/17 02:22:10;;;;;;;3.67;2.50;;;;;;;;;;6268951;22;20347;-89
2023/12/17 02:24:54;;;;;;;3.20;2.25;;;;;;;;;;6268769;22;20400;-88
2023/12/17 02:27:38;;;;;;;3.10;2.28;;;;;;;;;;6269093;22;20158;-87
2023/12/17 02:30:22;;;;;;;4.82;2.30;;;;;;;;;;6268049;22;20062;-89
2023/12/17 02:33:06;;;;;;;5.00;2.50;;;;;;;;;;6268585;22;20028;-88
2023/12/17 02:35:50;;;;;;;3.25;2.05;;;;;;;;;;6267231;22;20024;-88
2023/12/17 02:38:34;;;;;;;2.67;2.05;;;;;;;;;;6268144;22;20055;-87
2023/12/17 02:41:20;;;;;;;3.63;1.90;;;;;;;;;;6267740;22;20023;-87
2023/12/17 02:44:04;;;;;;;2.40;2.20;;;;;;;;;;6267315;22;20062;-88
2023/12/17 02:46:47;;;;;;;2.42;2.22;;;;;;;;;;6267976;22;20094;-88
2023/12/17 02:49:31;;;;;;;2.60;1.80;;;;;;;;;;6268144;22;20019;-88
2023/12/17 02:52:16;;;;;;;2.63;2.42;;;;;;;;;;6179881;23;20024;-89
2023/12/17 02:55:00;;;;;;;2.25;2.05;;;;;;;;;;6268378;22;20023;-87
2023/12/17 02:57:44;;;;;;;1.90;1.80;;;;;;;;;;6268259;22;20024;-88
2023/12/17 03:00:28;;;;;;;1.83;1.70;;;;;;;;;;6180451;23;20020;-87
2023/12/17 03:03:12;;;;;;;2.35;2.00;;;;;;;;;;6179877;23;20051;-89
2023/12/17 03:05:56;;;;;;;2.22;2.00;;;;;;;;;;6266637;22;20031;-87
2023/12/17 03:08:40;;;;;;;2.35;2.15;;;;;;;;;;6267663;22;20394;-88
2023/12/17 03:11:23;;;;;;;2.30;2.10;;;;;;;;;;6266977;22;20020;-88
2023/12/17 03:14:07;;;;;;;2.65;2.30;;;;;;;;;;6266633;22;20034;-89
2023/12/17 03:16:51;;;;;;;3.05;2.10;;;;;;;;;;6267366;22;20027;-87
2023/12/17 03:19:35;;;;;;;2.53;2.33;;;;;;;;;;6267271;22;20032;-88
2023/12/17 03:22:19;;;;;;;3.30;3.00;;;;;;;;;;6179420;23;20346;-88
2023/12/17 03:25:04;;;;;;;4.63;3.00;;;;;;;;;;6266351;22;20024;-87
2023/12/17 03:27:47;;;;;;;3.40;3.10;;;;;;;;;;6179999;22;20508;-88
2023/12/17 03:30:31;;;;;;;4.18;3.78;;;;;;;;;;6181593;23;20469;-89
2023/12/17 03:33:15;;;;;;;3.83;3.40;;;;;;;;;;6181348;23;20291;-88
2023/12/17 03:35:59;;;;;;;4.13;3.72;;;;;;;;;;6269400;22;20043;-88
2023/12/17 03:38:44;;;;;;;5.25;3.40;;;;;;;;;;6268920;22;20518;-87
2023/12/17 03:41:28;;;;;;;4.15;3.75;;;;;;;;;;6269292;22;20066;-88
2023/12/17 03:44:12;;;;;;;3.90;3.50;;;;;;;;;;6180956;23;20094;-89
2023/12/17 03:46:56;;;;;;;4.75;3.83;;;;;;;;;;6268062;22;20016;-88
2023/12/17 03:49:40;;;;;;;3.50;3.20;;;;;;;;;;6268605;22;20017;-88
2023/12/17 03:52:24;;;;;;;5.00;3.83;;;;;;;;;;6267919;22;20020;-87
2023/12/17 03:55:08;;;;;;;5.13;4.20;;;;;;;;;;6269135;22;20025;-88
2023/12/17 03:57:52;;;;;;;4.78;4.28;;;;;;;;;;6180967;23;20020;-87
2023/12/17 04:00:36;;;;;;;6.45;4.28;;;;;;;;;;6268439;22;20032;-88
2023/12/17 04:03:20;;;;;;;4.80;4.40;;;;;;;;;;6180825;23;20071;-88
2023/12/17 04:06:05;;;;;;;5.15;4.65;;;;;;;;;;6268382;22;20020;-91
2023/12/17 04:08:52;;;;;;;6.53;4.50;;;;;;;;;;6268408;22;20607;-89
2023/12/17 04:11:36;;;;;;;4.65;4.25;;;;;;;;;;6268934;22;20024;-87
2023/12/17 04:14:20;;;;;;;4.53;4.13;;;;;;;;;;6268958;22;20024;-89
2023/12/17 04:17:04;;;;;;;4.78;4.28;;;;;;;;;;6181193;23;20069;-88
2023/12/17 04:19:48;;;;;;;5.53;4.40;;;;;;;;;;6268481;22;20362;-87
2023/12/17 04:22:32;;;;;;;6.10;5.10;;;;;;;;;;6180552;23;20384;-87
2023/12/17 04:25:16;;;;;;;4.72;4.32;;;;;;;;;;6267262;22;20081;-87
2023/12/17 04:28:00;;;;;;;5.30;4.78;;;;;;;;;;6269357;22;20016;-88
2023/12/17 04:30:44;;;;;;;6.75;4.50;;;;;;;;;;6268165;22;20518;-88
2023/12/17 04:33:28;;;;;;;5.68;4.85;;;;;;;;;;6179734;23;20059;-88
2023/12/17 04:36:12;;;;;;;5.57;4.93;;;;;;;;;;6181353;22;20469;-87
2023/12/17 04:38:56;;;;;;;6.00;5.18;;;;;;;;;;6267671;22;20073;-88
2023/12/17 04:41:40;;;;;;;6.30;4.43;;;;;;;;;;6268651;22;20516;-87
2023/12/17 04:44:24;;;;;;;5.80;4.50;;;;;;;;;;6269835;22;20062;-87
2023/12/17 04:47:08;;;;;;;5.75;4.55;;;;;;;;;;6268954;22;20058;-88
2023/12/17 04:49:52;;;;;;;6.57;4.28;;;;;;;;;;6180852;23;20474;-88
2023/12/17 04:52:36;;;;;;;5.85;4.15;;;;;;;;;;6268510;22;20023;-88
2023/12/17 04:55:20;;;;;;;7.32;4.40;;;;;;;;;;6180986;23;20128;-87
2023/12/17 04:58:04;;;;;;;7.95;4.88;;;;;;;;;;6267862;22;20466;-89
2023/12/17 05:00:48;;;;;;;7.18;4.85;;;;;;;;;;6180587;23;20066;-87
2023/12/17 05:03:32;;;;;;;7.78;4.45;;;;;;;;;;6180934;23;20027;-88
2023/12/17 05:06:17;;;;;;;6.15;4.55;;;;;;;;;;6181164;22;20074;-87
2023/12/17 05:09:01;;;;;;;8.43;4.68;;;;;;;;;;6267318;22;20466;-89
2023/12/17 05:11:46;;;;;;;6.95;4.80;;;;;;;;;;6180987;23;20024;-88
2023/12/17 05:14:30;;;;;;;8.88;4.70;;;;;;;;;;6267712;22;20462;-87
2023/12/17 05:17:14;;;;;;;7.78;4.38;;;;;;;;;;6180769;23;20024;-89
2023/12/17 05:19:58;;;;;;;7.63;5.05;;;;;;;;;;6267881;22;20580;-89
2023/12/17 05:22:41;;;;;;;7.88;4.85;;;;;;;;;;6268019;22;20012;-87
2023/12/17 05:25:25;;;;;;;7.03;5.03;;;;;;;;;;6268555;22;20041;-87
2023/12/17 05:28:11;;;;;;;10.57;5.30;;;;;;;;;;6268845;22;20038;-88
2023/12/17 05:30:55;;;;;;;9.57;4.70;;;;;;;;;;6181697;23;20016;-88
2023/12/17 05:33:39;;;;;;;8.85;4.78;;;;;;;;;;6181058;23;20085;-88
2023/12/17 05:36:23;;;;;;;9.93;5.00;;;;;;;;;;6267201;22;20024;-88
2023/12/17 05:39:07;;;;;;;9.23;5.18;;;;;;;;;;6180657;23;20342;-88
2023/12/17 05:41:51;;;;;;;13.32;5.68;;;;;;;;;;6268354;22;20100;-88
2023/12/17 05:44:35;;;;;;;11.05;5.03;;;;;;;;;;6268942;22;20555;-88
2023/12/17 05:47:19;;;;;;;13.15;4.82;;;;;;;;;;6268815;22;20070;-87
2023/12/17 05:50:03;;;;;;;9.88;4.72;;;;;;;;;;6267765;22;20044;-88
2023/12/17 05:52:47;;;;;;;7.82;4.43;;;;;;;;;;6267335;22;20016;-88
2023/12/17 05:55:31;;;;;;;7.93;3.80;;;;;;;;;;6181176;23;20024;-88
2023/12/17 05:58:15;;;;;;;5.80;3.60;;;;;;;;;;6268768;22;20023;-88
2023/12/17 06:00:59;;;;;;;9.57;4.05;;;;;;;;;;6269577;22;20100;-87
2023/12/17 06:03:43;;;;;;;9.18;4.45;;;;;;;;;;6268361;22;20023;-88
2023/12/17 06:06:27;;;;;;;10.55;4.20;;;;;;;;;;6269358;22;20470;-89
2023/12/17 06:09:11;;;;;;;13.32;3.67;;;;;;;;;;6268593;22;20434;-88
2023/12/17 06:11:57;;;;;;;12.90;3.55;;;;;;;;;;6180417;23;20016;-87
2023/12/17 06:14:41;;;;;;;7.60;3.65;;;;;;;;;;6181376;23;20016;-88
2023/12/17 06:17:25;;;;;;;7.28;3.60;;;;;;;;;;6269792;22;20101;-91
2023/12/17 06:20:09;;;;;;;11.68;4.07;;;;;;;;;;6268845;22;20348;-89
2023/12/17 06:22:53;;;;;;;16.23;4.15;;;;;;;;;;6181272;23;20520;-88
2023/12/17 06:25:37;;;;;;;9.88;3.83;;;;;;;;;;6267708;22;20040;-87
2023/12/17 06:28:21;;;;;;;8.02;3.78;;;;;;;;;;6269115;22;20017;-88
2023/12/17 06:31:05;;;;;;;15.77;5.22;;;;;;;;;;6268526;22;20021;-88
2023/12/17 06:33:49;;;;;;;7.25;3.80;;;;;;;;;;6268908;22;20078;-87
2023/12/17 06:36:33;;;;;;;;;;;;;;;;;;6180827;23;20023;-89
2023/12/17 06:39:17;;;;;;;14.60;4.38;;;;;;;;;;6268051;22;19930;-89
2023/12/17 06:42:01;;;;;;;11.70;4.97;;;;;;;;;;6268998;22;20536;-89
2023/12/17 06:44:45;;;;;;;12.40;4.72;;;;;;;;;;6180768;23;20027;-88
2023/12/17 06:47:29;;;;;;;10.52;4.00;;;;;;;;;;6268016;22;20016;-88
2023/12/17 06:50:13;;;;;;;12.73;3.88;;;;;;;;;;6180683;23;20016;-88
2023/12/17 06:52:57;;;;;;;13.35;4.20;;;;;;;;;;6267859;22;20009;-88
2023/12/17 06:55:44;;;;;;;10.38;4.43;;;;;;;;;;6180302;23;20043;-89
2023/12/17 06:58:28;;;;;;;7.07;3.53;;;;;;;;;;6267952;22;20051;-88
2023/12/17 07:01:12;;;;;;;13.88;4.30;;;;;;;;;;6269363;22;20066;-89
2023/12/17 07:03:56;;;;;;;17.75;4.55;;;;;;;;;;6269498;22;20020;-88
2023/12/17 07:06:40;;;;;;;18.20;4.28;;;;;;;;;;6269499;22;20067;-89
2023/12/17 07:09:24;;;;;;;8.90;3.42;;;;;;;;;;6270018;22;20027;-89
2023/12/17 07:12:08;;;;;;;13.77;4.40;;;;;;;;;;6181791;22;20047;-88
2023/12/17 07:14:53;;;;;;;12.73;4.70;;;;;;;;;;6182854;22;20507;-88
2023/12/17 07:17:36;;;;;;;12.73;4.13;;;;;;;;;;6269376;22;20105;-87
2023/12/17 07:20:20;;;;;;;13.02;4.45;;;;;;;;;;6268937;22;20031;-88
2023/12/17 07:23:04;;;;;;;10.00;3.75;;;;;;;;;;6269861;22;20064;-88
2023/12/17 07:25:48;;;;;;;14.27;4.38;;;;;;;;;;6269080;22;20106;-88
2023/12/17 07:28:32;;;;;;;18.27;4.90;;;;;;;;;;6271860;22;20016;-89
2023/12/17 07:31:16;;;;;;;14.38;4.10;;;;;;;;;;6181507;23;20015;-90
2023/12/17 07:34:00;;;;;;;14.18;4.55;;;;;;;;;;6269981;22;20062;-87
2023/12/17 07:36:44;;;;;;;17.77;4.43;;;;;;;;;;6270475;22;20351;-87
2023/12/17 07:39:28;;;;;;;22.85;4.07;;;;;;;;;;6270187;22;20363;-90
2023/12/17 07:42:12;;;;;;;11.82;3.50;;;;;;;;;;6269739;22;20027;-87
2023/12/17 07:44:56;;;;;;;12.18;4.55;;;;;;;;;;6270059;22;20024;-88
2023/12/17 07:47:40;;;;;;;13.43;4.28;;;;;;;;;;6269702;22;20343;-87
2023/12/17 07:50:23;;;;;;;15.23;4.40;;;;;;;;;;6183275;23;20059;-87
2023/12/17 07:53:08;;;;;;;15.32;4.43;;;;;;;;;;6270614;22;20046;-87
2023/12/17 07:55:57;;;;;;;11.73;4.13;;;;;;;;;;6268912;22;20024;-87
2023/12/17 07:58:41;;;;;;;10.38;3.95;;;;;;;;;;6268045;22;20020;-86
2023/12/17 08:01:28;;;;;;;11.43;3.83;;;;;;;;;;6270533;22;20036;-88
2023/12/17 08:04:13;;;;;;;18.35;5.07;;;;;;;;;;6271828;22;20071;-88
2023/12/17 08:06:56;;;;;;;15.25;4.68;;;;;;;;;;6271775;22;20024;-88
2023/12/17 08:09:41;;;;;;;15.52;4.18;;;;;;;;;;6184244;23;20046;-88
2023/12/17 08:12:24;;;;;;;19.83;5.15;;;;;;;;;;6271879;22;20016;-88
2023/12/17 08:15:09;;;;;;;11.27;3.97;;;;;;;;;;6271479;22;20085;-88
2023/12/17 08:17:52;;;;;;;19.02;4.90;;;;;;;;;;6270330;22;20024;-88
2023/12/17 08:20:36;;;;;;;14.73;4.72;;;;;;;;;;6181311;23;20032;-88
2023/12/17 08:23:20;;;;;;;19.30;4.70;;;;;;;;;;6272589;22;20020;-88
2023/12/17 08:26:04;;;;;;;20.15;5.70;;;;;;;;;;6272733;22;20074;-87
2023/12/17 08:28:48;;;;;;;11.52;4.25;;;;;;;;;;6273104;22;20020;-89
2023/12/17 08:31:33;;;;;;;18.17;4.63;;;;;;;;;;6272333;22;20100;-88
2023/12/17 08:34:17;;;;;;;11.18;4.40;;;;;;;;;;6182304;23;20016;-88
2023/12/17 08:37:01;;;;;;;12.18;4.82;;;;;;;;;;6270383;22;20040;-88
2023/12/17 08:39:45;;;;;;;11.88;4.60;;;;;;;;;;6272785;22;20512;-89
2023/12/17 08:42:29;;;;;;;12.63;5.30;;;;;;;;;;6271880;22;20073;-90
2023/12/17 08:45:13;;;;;;;11.23;4.35;;;;;;;;;;6272316;22;20020;-89
2023/12/17 08:47:57;;;;;;;14.10;5.18;;;;;;;;;;6273445;22;20069;-89
2023/12/17 08:50:41;;;;;;;16.30;4.60;;;;;;;;;;6186449;23;20046;-88
2023/12/17 08:53:26;;;;;;;19.10;5.28;;;;;;;;;;6273494;22;20066;-88
2023/12/17 08:56:10;;;;;;;12.93;4.68;;;;;;;;;;6272470;22;20096;-90
2023/12/17 08:58:54;;;;;;;15.98;5.63;;;;;;;;;;6185202;23;20024;-89
2023/12/17 09:01:38;;;;;;;20.90;5.15;;;;;;;;;;6185023;23;20023;-90
2023/12/17 09:04:22;;;;;;;14.55;4.53;;;;;;;;;;6185404;23;20024;-89
2023/12/17 09:07:06;;;;;;;20.48;5.28;;;;;;;;;;6274219;22;20028;-90
2023/12/17 09:09:50;;;;;;;13.48;4.60;;;;;;;;;;6274321;22;20020;-88
2023/12/17 09:12:34;;;;;;;12.55;4.28;;;;;;;;;;6273729;22;20020;-88
2023/12/17 09:15:18;;;;;;;10.23;3.97;;;;;;;;;;6274258;22;20051;-88
2023/12/17 09:18:03;;;;;;;14.02;3.85;;;;;;;;;;6186751;23;20162;-88
2023/12/17 09:20:47;;;;;;;16.00;4.80;;;;;;;;;;6272545;22;20028;-90
2023/12/17 09:23:31;;;;;;;20.23;4.63;;;;;;;;;;6273679;22;20051;-90
2023/12/17 09:26:15;;;;;;;34.55;6.13;;;;;;;;;;6273259;22;20047;-88
2023/12/17 09:28:59;;;;;;;15.02;4.45;;;;;;;;;;6270620;22;20035;-89
2023/12/17 09:31:43;;;;;;;19.55;5.00;;;;;;;;;;6272898;22;20378;-89
2023/12/17 09:34:27;;;;;;;14.95;5.18;;;;;;;;;;6272280;22;20092;-88
2023/12/17 09:37:11;;;;;;;;;;;;;;;;;;6272598;22;20052;-90
2023/12/17 09:39:55;;;;;;;17.92;4.63;;;;;;;;;;6272790;22;19949;-89
2023/12/17 09:42:43;;;;;;;14.32;4.20;;;;;;;;;;6271859;22;20051;-88
2023/12/17 09:45:27;;;;;;;14.20;4.30;;;;;;;;;;6273001;22;20119;-87
2023/12/17 09:48:11;;;;;;;14.30;4.70;;;;;;;;;;6273068;22;20067;-89
2023/12/17 09:50:55;;;;;;;15.98;4.20;;;;;;;;;;6274144;22;20085;-90
2023/12/17 09:53:39;;;;;;;17.70;4.30;;;;;;;;;;6270842;22;20020;-86
2023/12/17 09:56:23;;;;;;;12.05;4.22;;;;;;;;;;6185761;23;20047;-91
2023/12/17 09:59:07;;;;;;;15.60;4.72;;;;;;;;;;6274259;22;20024;-90
2023/12/17 10:01:52;;;;;;;18.67;4.60;;;;;;;;;;6273198;22;20477;-88
2023/12/17 10:04:35;;;;;;;13.50;3.75;;;;;;;;;;6184567;23;20140;-89
2023/12/17 10:07:20;;;;;;;19.05;4.03;;;;;;;;;;6272078;22;20490;-89
2023/12/17 10:10:04;;;;;;;13.75;3.80;;;;;;;;;;6272903;22;20085;-88
2023/12/17 10:12:48;;;;;;;13.57;3.72;;;;;;;;;;6274671;22;20061;-90
2023/12/17 10:15:32;;;;;;;;;;;;;;;;;;6275943;22;20024;-89
2023/12/17 10:18:16;;;;;;;;;;;;;;;;;;6276071;22;20305;-90
2023/12/17 10:21:04;;;;;;;10.70;3.60;;;;;;;;;;6274032;22;19952;-90
2023/12/17 10:23:48;;;;;;;21.45;4.13;;;;;;;;;;6273504;22;20020;-90
2023/12/17 10:26:41;;;;;;;11.52;3.80;;;;;;;;;;6274566;22;20068;-89
2023/12/17 10:29:26;;;;;;;16.23;3.83;;;;;;;;;;6274105;22;20077;-89
2023/12/17 10:32:11;;;;;;;13.32;3.25;;;;;;;;;;6272732;22;20032;-89
2023/12/17 10:34:55;;;;;;;8.23;3.60;;;;;;;;;;6271861;22;20069;-89
2023/12/17 10:37:39;;;;;;;16.30;3.67;;;;;;;;;;6272278;22;20343;-89
2023/12/17 10:40:24;;;;;;;15.85;3.63;;;;;;;;;;6273982;22;20020;-90
2023/12/17 10:43:16;;;;;;;14.52;4.28;;;;;;;;;;6275178;22;20105;-89
2023/12/17 10:46:00;;;;;;;14.68;4.07;;;;;;;;;;6273182;22;20111;-90
2023/12/17 10:48:45;;;;;;;11.80;4.20;;;;;;;;;;6271990;22;20043;-88
2023/12/17 10:51:29;;;;;;;16.85;4.57;;;;;;;;;;6272174;22;20339;-87
2023/12/17 10:54:13;;;;;;;14.82;3.83;;;;;;;;;;6271789;22;20044;-91
2023/12/17 10:56:59;;;;;;;14.57;3.67;;;;;;;;;;6272438;22;20078;-89
2023/12/17 10:59:44;;;;;;;14.70;3.75;;;;;;;;;;6271997;22;20070;-91
2023/12/17 11:02:29;;;;;;;13.32;4.22;;;;;;;;;;6272076;22;20035;-89
2023/12/17 11:05:13;;;;;;;11.80;3.60;;;;;;;;;;6271475;22;20023;-87
2023/12/17 11:08:01;;;;;;;13.88;4.18;;;;;;;;;;6272262;22;20020;-91
2023/12/17 11:10:45;;;;;;;15.95;5.20;;;;;;;;;;6271924;22;20051;-88
2023/12/17 11:13:29;;;;;;;16.45;3.95;;;;;;;;;;6271676;22;20016;-89
2023/12/17 11:16:26;;;;;;;14.35;4.40;;;;;;;;;;6272555;22;20024;-90
2023/12/17 11:19:13;;;;;;;17.42;4.57;;;;;;;;;;6272285;22;20032;-91
2023/12/17 11:21:57;;;;;;;18.33;4.55;;;;;;;;;;6273129;22;20462;-88
2023/12/17 11:24:41;;;;;;;15.23;3.70;;;;;;;;;;6272201;22;20020;-88
2023/12/17 11:27:25;;;;;;;19.90;5.03;;;;;;;;;;6271731;22;20134;-89
2023/12/17 11:30:28;;;;;;;18.23;4.65;;;;;;;;;;6268819;22;20020;-88
2023/12/17 11:33:13;;;;;;;11.83;3.90;;;;;;;;;;6271498;22;20093;-92
2023/12/17 11:36:00;;;;;;;19.98;3.90;;;;;;;;;;6271953;22;20403;-88
2023/12/17 11:38:44;;;;;;;14.95;4.60;;;;;;;;;;6271535;22;20024;-90
2023/12/17 11:41:28;;;;;;;14.63;4.88;;;;;;;;;;6271534;22;20023;-89
2023/12/17 11:44:12;;;;;;;15.00;5.07;;;;;;;;;;6271412;22;20105;-89
2023/12/17 11:46:56;;;;;;;13.07;4.50;;;;;;;;;;6270692;22;20044;-89
2023/12/17 11:49:40;;;;;;;16.10;5.47;;;;;;;;;;6270096;22;20082;-88
2023/12/17 11:52:25;;;;;;;9.45;3.53;;;;;;;;;;6270819;22;20066;-87
2023/12/17 11:55:09;;;;;;;14.05;4.22;;;;;;;;;;6269533;22;20097;-88
2023/12/17 11:57:59;;;;;;;10.73;3.55;;;;;;;;;;6270791;22;20039;-88
2023/12/17 12:00:59;;;;;;;15.93;3.63;;;;;;;;;;6272312;22;20039;-88
2023/12/17 12:03:43;;;;;;;14.40;4.97;;;;;;;;;;6272423;22;20449;-89
2023/12/17 12:06:29;;;;;;;9.48;4.18;;;;;;;;;;6269627;22;20036;-88
2023/12/17 12:09:17;;;;;;;15.90;4.95;;;;;;;;;;6271085;22;20066;-88
2023/12/17 12:12:01;;;;;;;15.32;4.15;;;;;;;;;;6272180;22;20093;-89
2023/12/17 12:14:46;;;;;;;15.05;4.97;;;;;;;;;;6272151;22;20023;-90
2023/12/17 12:17:39;;;;;;;11.90;3.75;;;;;;;;;;6271703;22;20084;-90
2023/12/17 12:20:34;;;;;;;17.42;3.67;;;;;;;;;;6271189;22;20078;-90
2023/12/17 12:23:20;;;;;;;10.00;3.80;;;;;;;;;;6269876;22;20141;-88
2023/12/17 12:26:08;;;;;;;12.23;4.50;;;;;;;;;;6270383;22;20039;-89
2023/12/17 12:28:55;;;;;;;13.35;5.10;;;;;;;;;;6271836;22;20016;-88
2023/12/17 12:31:38;;;;;;;12.10;4.07;;;;;;;;;;6271459;22;20343;-88
2023/12/17 12:34:31;;;;;;;14.93;3.72;;;;;;;;;;6270988;22;20048;-87
2023/12/17 12:37:29;;;;;;;16.67;3.80;;;;;;;;;;6270845;22;20047;-88
2023/12/17 12:40:13;;;;;;;18.42;3.75;;;;;;;;;;6271276;22;20504;-88
2023/12/17 12:43:21;;;;;;;12.20;3.80;;;;;;;;;;6271397;22;20466;-90
2023/12/17 12:46:31;;;;;;;22.75;5.03;;;;;;;;;;6270131;22;20359;-88
2023/12/17 12:49:25;;;;;;;9.10;3.80;;;;;;;;;;6271144;22;20066;-87
2023/12/17 12:52:09;;;;;;;12.68;4.07;;;;;;;;;;6271432;22;20019;-92
2023/12/17 12:54:53;;;;;;;13.82;3.70;;;;;;;;;;6271415;22;20058;-88
2023/12/17 12:57:37;;;;;;;13.85;4.05;;;;;;;;;;6271103;22;20024;-88
2023/12/17 13:00:21;;;;;;;17.95;4.43;;;;;;;;;;6270688;22;20024;-88
2023/12/17 13:03:04;;;;;;;16.10;3.80;;;;;;;;;;6270720;22;20028;-90
2023/12/17 13:05:48;;;;;;;13.70;3.63;;;;;;;;;;6270762;22;20020;-88
2023/12/17 13:08:32;;;;;;;11.35;3.97;;;;;;;;;;6270261;22;20474;-89
2023/12/17 13:11:16;;;;;;;19.33;3.78;;;;;;;;;;6270590;22;20066;-89
2023/12/17 13:14:00;;;;;;;18.27;3.97;;;;;;;;;;6270765;22;20016;-88
2023/12/17 13:16:50;;;;;;;11.88;4.10;;;;;;;;;;6270566;22;20457;-89
2023/12/17 13:19:34;;;;;;;22.05;5.10;;;;;;;;;;6270543;22;20055;-89
2023/12/17 13:22:17;;;;;;;7.07;3.20;;;;;;;;;;6270609;22;20469;-89
2023/12/17 13:25:01;;;;;;;11.90;3.33;;;;;;;;;;6270163;22;20020;-88
2023/12/17 13:35:19;;;;;;;8.82;3.15;;;;;;;;;;6184319;23;20012;-89
2023/12/17 13:38:06;;;;;;;8.00;3.00;;;;;;;;;;6271824;22;20020;-90
2023/12/17 13:40:54;;;;;;;16.02;5.43;;;;;;;;;;6271620;22;20062;-90
2023/12/17 13:50:30;;;;;;;8.73;4.20;;;;;;;;;;6182726;23;20016;-89
2023/12/17 13:53:17;;;;;;;44.22;22.90;;;;;;;;;;6269468;22;20016;-87
2023/12/17 13:56:01;;;;;;;14.70;4.85;;;;;;;;;;6268646;22;20024;-90
2023/12/17 13:58:45;;;;;;;12.35;5.50;;;;;;;;;;6181532;23;20070;-89
2023/12/17 14:01:29;;;;;;;39.83;23.55;;;;;;;;;;6270060;22;20086;-90
2023/12/17 14:04:13;;;;;;;14.27;6.43;;;;;;;;;;6268850;22;20070;-89
2023/12/17 14:06:58;;;;;;;8.13;3.00;;;;;;;;;;6269186;22;20101;-88
2023/12/17 14:09:42;;;;;;;12.20;3.50;;;;;;;;;;6269706;22;20051;-88
2023/12/17 14:12:26;;;;;;;8.13;3.80;;;;;;;;;;6267942;22;20360;-88
2023/12/17 14:18:58;;;;;;;9.55;3.97;;;;;;;;;;6208968;22;20503;-88
2023/12/17 14:25:08;;;;;;;9.35;3.30;;;;;;;;;;6197879;23;20040;-89
2023/12/17 14:27:54;;;;;;;9.73;2.33;;;;;;;;;;6269815;22;20063;-89
2023/12/17 14:30:39;;;;;;;8.05;2.90;;;;;;;;;;6269800;22;20070;-90
2023/12/17 14:33:23;;;;;;;5.97;2.63;;;;;;;;;;6274877;22;20020;-90
2023/12/17 14:36:07;;;;;;;7.13;2.63;;;;;;;;;;6275326;22;20051;-91
2023/12/17 14:38:52;;;;;;;3.20;2.17;;;;;;;;;;6274649;22;20043;-91
2023/12/17 14:41:36;;;;;;;6.15;2.50;;;;;;;;;;6277677;22;20039;-91
2023/12/17 14:44:20;;;;;;;3.97;2.45;;;;;;;;;;6287085;22;20071;-91
2023/12/17 14:47:04;;;;;;;5.90;2.00;;;;;;;;;;6283295;22;20024;-90
2023/12/17 14:49:48;;;;;;;7.40;2.80;;;;;;;;;;6290535;22;20008;-91
2023/12/17 14:52:33;;;;;;;6.03;2.30;;;;;;;;;;6319055;22;20060;-88
2023/12/17 14:55:43;;;;;;;5.35;2.00;;;;;;;;;;6330860;22;20022;-90
2023/12/17 14:58:32;;;;;;;6.57;2.05;;;;;;;;;;6334613;22;20017;-90
2023/12/17 15:01:18;;;;;;;6.55;2.25;;;;;;;;;;6320173;22;20072;-89
2023/12/17 15:04:02;;;;;;;5.18;2.17;;;;;;;;;;6247783;23;20018;-91
2023/12/17 15:06:49;;;;;;;7.05;2.15;;;;;;;;;;6231447;23;20055;-90
2023/12/17 15:09:37;;;;;;;5.03;2.13;;;;;;;;;;6252797;23;20038;-90
2023/12/17 15:12:24;;;;;;;5.07;2.35;;;;;;;;;;6231623;23;20070;-90
2023/12/17 15:15:29;;;;;;;4.05;2.10;;;;;;;;;;6248572;23;20022;-89
2023/12/17 15:18:13;;;;;;;5.70;2.22;;;;;;;;;;6226524;23;20086;-90
2023/12/17 15:24:39;;;;;;;3.78;2.10;;;;;;;;;;6250087;23;20014;-92
2023/12/17 15:27:24;;;;;;;6.45;2.63;;;;;;;;;;6232163;23;20019;-90
2023/12/17 15:30:09;;;;;;;4.20;2.58;;;;;;;;;;6229524;23;20015;-90
2023/12/17 15:32:54;;;;;;;5.20;2.40;;;;;;;;;;6248863;23;20080;-90
2023/12/17 15:35:38;;;;;;;9.05;3.28;;;;;;;;;;6282479;22;20019;-90
2023/12/17 15:38:22;;;;;;;8.48;3.03;;;;;;;;;;6288852;22;20022;-90
2023/12/17 15:41:21;;;;;;;6.40;2.28;;;;;;;;;;6290614;22;20034;-89
2023/12/17 15:44:05;;;;;;;19.25;11.48;;;;;;;;;;6289576;22;20018;-90
2023/12/17 15:46:49;;;;;;;7.05;4.78;;;;;;;;;;6288746;22;20022;-90
2023/12/17 15:49:34;;;;;;;12.00;6.93;;;;;;;;;;6288803;22;20057;-90
2023/12/17 15:52:18;;;;;;;12.57;6.03;;;;;;;;;;6288507;22;20014;-90
2023/12/17 15:55:01;;;;;;;6.68;3.65;;;;;;;;;;6288597;22;20310;-91
2023/12/17 15:57:47;;;;;;;13.25;6.55;;;;;;;;;;6289738;22;20017;-90
2023/12/17 16:00:31;;;;;;;8.23;3.45;;;;;;;;;;6285658;22;20022;-90
2023/12/17 16:03:15;;;;;;;8.10;4.57;;;;;;;;;;6124336;23;20028;-89
2023/12/17 16:05:59;;;;;;;11.07;3.50;;;;;;;;;;6124850;23;20025;-90
2023/12/17 16:08:43;;;;;;;8.93;3.25;;;;;;;;;;6123592;23;20021;-90
2023/12/17 16:11:27;;;;;;;6.65;2.75;;;;;;;;;;6124588;23;20017;-89
2023/12/17 16:14:11;;;;;;;7.28;3.20;;;;;;;;;;6126408;23;20097;-90
2023/12/17 16:16:57;;;;;;;11.65;3.40;;;;;;;;;;6128892;23;20088;-91
2023/12/17 16:19:57;;;;;;;13.77;3.00;;;;;;;;;;6133550;23;20021;-90
2023/12/17 16:22:43;;;;;;;6.90;3.00;;;;;;;;;;6132665;23;20444;-90
2023/12/17 16:32:27;;;;;;;9.98;3.78;;;;;;;;;;6125964;23;19963;-91
2023/12/17 16:35:14;;;;;;;10.35;3.20;;;;;;;;;;6122495;23;20043;-90
2023/12/17 16:37:58;;;;;;;5.88;3.03;;;;;;;;;;6123847;23;20049;-89
2023/12/17 16:40:45;;;;;;;11.48;3.42;;;;;;;;;;6122991;23;20076;-90
2023/12/17 16:43:30;;;;;;;13.05;3.33;;;;;;;;;;6123115;23;20516;-90
2023/12/17 16:46:13;;;;;;;61.05;26.73;;;;;;;;;;6122992;23;20127;-90
2023/12/17 16:48:59;;;;;;;82.55;33.75;;;;;;;;;;6122492;23;20075;-90
2023/12/17 16:51:43;;;;;;;47.88;17.92;;;;;;;;;;6123258;23;20337;-90
2023/12/17 16:54:30;;;;;;;68.38;25.67;;;;;;;;;;6123574;23;20468;-90
2023/12/17 16:57:14;;;;;;;7.60;4.32;;;;;;;;;;6122786;23;20028;-90